Time;durP1;ratioP1;P1;durP2;ratioP2;P2;SDS_P1;SDS_P2;PMS_P1;PMS_P2;Temp;Humidity;BMP_temperature;BMP_pressure;BME280_temperature;BME280_humidity;BME280_pressure;Samples;Min_cycle;Max_cycle;Signal;HPM_P1;HPM_P2
2021/11/23 00:01:04;;;;;;;8.60;7.73;;;3.60;99.90;;;;;;4993338;28;20506;-58
2021/11/23 00:03:29;;;;;;;10.50;9.03;;;3.60;99.90;;;;;;4994483;28;20176;-58
2021/11/23 00:05:55;;;;;;;9.73;8.73;;;3.60;99.90;;;;;;4994258;28;20188;-60
2021/11/23 00:08:21;;;;;;;9.40;8.50;;;3.40;99.90;;;;;;4994389;28;20200;-60
2021/11/23 00:10:47;;;;;;;9.50;8.23;;;3.30;99.90;;;;;;4994100;28;20896;-60
2021/11/23 00:13:14;;;;;;;8.97;8.07;;;3.30;99.90;;;;;;4994864;28;20177;-59
2021/11/23 00:15:41;;;;;;;7.60;6.83;;;3.30;99.90;;;;;;4993050;28;20416;-60
2021/11/23 00:18:09;;;;;;;8.50;7.60;;;3.40;99.90;;;;;;4994573;28;20455;-60
2021/11/23 00:20:36;;;;;;;7.43;6.73;;;3.40;99.90;;;;;;4994213;28;20411;-60
2021/11/23 00:23:01;;;;;;;7.97;7.17;;;3.30;99.90;;;;;;4993888;28;20418;-60
2021/11/23 00:25:28;;;;;;;9.33;8.07;;;3.40;99.90;;;;;;4993977;28;20439;-60
2021/11/23 00:27:55;;;;;;;9.30;8.40;;;3.40;99.90;;;;;;4994183;28;20184;-60
2021/11/23 00:30:21;;;;;;;9.77;8.87;;;3.30;99.90;;;;;;4994322;28;21016;-60
2021/11/23 00:32:48;;;;;;;9.00;8.20;;;3.40;99.90;;;;;;4994237;28;20506;-60
2021/11/23 00:35:15;;;;;;;11.10;9.97;;;3.30;99.90;;;;;;4994086;28;20188;-60
2021/11/23 00:37:43;;;;;;;7.50;6.80;;;3.40;99.90;;;;;;4994043;28;20470;-58
2021/11/23 00:40:09;;;;;;;12.07;9.63;;;3.30;99.90;;;;;;4994019;28;20412;-60
2021/11/23 00:42:35;;;;;;;10.03;9.00;;;3.30;99.90;;;;;;4994163;28;20416;-59
2021/11/23 00:45:01;;;;;;;10.17;9.00;;;3.30;99.90;;;;;;4993954;28;20940;-59
2021/11/23 00:47:27;;;;;;;9.90;8.90;;;3.30;99.90;;;;;;4993792;28;20454;-60
2021/11/23 00:49:52;;;;;;;9.00;8.10;;;3.30;99.90;;;;;;4994205;28;20176;-61
2021/11/23 00:52:18;;;;;;;9.10;8.20;;;3.30;99.90;;;;;;4993771;28;20172;-60
2021/11/23 00:54:44;;;;;;;11.10;10.00;;;3.30;99.90;;;;;;4993413;28;20231;-60
2021/11/23 00:57:10;;;;;;;8.80;8.00;;;3.30;99.90;;;;;;4994210;28;20462;-60
2021/11/23 00:59:38;;;;;;;10.60;9.30;;;3.40;99.90;;;;;;4994240;28;20470;-59
2021/11/23 01:02:04;;;;;;;10.60;7.53;;;3.30;99.90;;;;;;4994302;28;20589;-60
2021/11/23 01:04:30;;;;;;;7.40;6.70;;;3.30;99.90;;;;;;4991116;28;20448;-60
2021/11/23 01:06:55;;;;;;;9.97;8.97;;;3.40;99.90;;;;;;4985191;28;20559;-60
2021/11/23 01:09:21;;;;;;;9.00;8.20;;;3.30;99.90;;;;;;4997842;28;20268;-64
2021/11/23 01:11:47;;;;;;;9.93;9.00;;;3.30;99.90;;;;;;4998344;28;20176;-58
2021/11/23 01:14:12;;;;;;;9.70;8.80;;;3.30;99.90;;;;;;4999819;28;20196;-60
2021/11/23 01:16:38;;;;;;;9.50;8.60;;;3.20;99.90;;;;;;4999481;28;20252;-60
2021/11/23 01:19:06;;;;;;;9.37;8.47;;;3.30;99.90;;;;;;4999140;28;20165;-60
2021/11/23 01:21:33;;;;;;;10.20;9.17;;;3.20;99.90;;;;;;4997309;28;20634;-60
2021/11/23 01:23:58;;;;;;;9.00;8.20;;;3.20;99.90;;;;;;4994042;28;20418;-60
2021/11/23 01:26:24;;;;;;;11.87;9.17;;;3.20;99.90;;;;;;4993410;28;20502;-60
2021/11/23 01:28:49;;;;;;;9.73;8.77;;;3.30;99.90;;;;;;4993991;28;20168;-60
2021/11/23 01:31:15;;;;;;;9.17;8.27;;;3.30;99.90;;;;;;4994306;28;20173;-59
2021/11/23 01:33:41;;;;;;;10.13;9.23;;;3.20;99.90;;;;;;4994493;28;20216;-59
2021/11/23 01:36:06;;;;;;;8.77;7.97;;;3.20;99.90;;;;;;4996866;28;20196;-58
2021/11/23 01:38:32;;;;;;;8.97;8.10;;;3.10;99.90;;;;;;4997349;28;20622;-60
2021/11/23 01:40:58;;;;;;;8.93;8.00;;;3.10;99.90;;;;;;4997362;28;20176;-59
2021/11/23 01:43:23;;;;;;;17.77;8.97;;;3.00;99.90;;;;;;4997625;28;20569;-60
2021/11/23 01:45:49;;;;;;;8.43;7.63;;;3.00;99.90;;;;;;4998856;28;20428;-60
2021/11/23 01:48:15;;;;;;;9.20;8.30;;;3.00;99.90;;;;;;5000562;28;20168;-58
2021/11/23 01:50:41;;;;;;;8.77;7.97;;;3.00;99.90;;;;;;4999708;28;20452;-60
2021/11/23 01:53:07;;;;;;;9.50;8.60;;;3.00;99.90;;;;;;4997176;28;20212;-57
2021/11/23 01:55:40;;;;;;;9.80;8.90;;;2.90;99.90;;;;;;4999968;28;20232;-60
2021/11/23 01:58:08;;;;;;;8.50;7.70;;;2.90;99.90;;;;;;4999910;28;20554;-58
2021/11/23 02:00:34;;;;;;;12.90;8.60;;;2.90;99.90;;;;;;4997870;28;20447;-57
2021/11/23 02:03:00;;;;;;;8.67;7.77;;;2.90;99.90;;;;;;4998505;28;20756;-59
2021/11/23 02:05:26;;;;;;;8.60;7.70;;;2.90;99.90;;;;;;4996710;28;20452;-60
2021/11/23 02:07:52;;;;;;;9.67;8.20;;;3.00;99.90;;;;;;4996435;28;20165;-56
2021/11/23 02:10:18;;;;;;;9.87;8.97;;;2.90;99.90;;;;;;4996142;28;20458;-60
2021/11/23 02:12:44;;;;;;;8.87;8.07;;;2.90;99.90;;;;;;4996775;28;20762;-59
2021/11/23 02:15:11;;;;;;;10.83;9.73;;;2.90;99.90;;;;;;4996306;28;20185;-60
2021/11/23 02:17:37;;;;;;;8.30;7.50;;;2.90;99.90;;;;;;4978919;28;20451;-58
2021/11/23 02:20:09;;;;;;;9.13;8.33;;;2.90;99.90;;;;;;4996288;28;20403;-59
2021/11/23 02:22:34;;;;;;;7.93;7.13;;;2.90;99.90;;;;;;4996171;28;20753;-60
2021/11/23 02:25:00;;;;;;;9.40;8.53;;;2.80;99.90;;;;;;4995807;28;20443;-59
2021/11/23 02:27:26;;;;;;;9.97;8.97;;;2.80;99.90;;;;;;4996359;28;20169;-60
2021/11/23 02:29:51;;;;;;;13.03;11.20;;;2.70;99.90;;;;;;4996535;28;20173;-60
2021/11/23 02:32:17;;;;;;;10.40;9.50;;;2.80;99.90;;;;;;4978521;28;20538;-59
2021/11/23 02:34:43;;;;;;;9.60;8.70;;;2.80;99.90;;;;;;4996221;28;20185;-59
2021/11/23 02:37:09;;;;;;;10.43;9.33;;;2.80;99.90;;;;;;4995947;28;20661;-60
2021/11/23 02:39:34;;;;;;;11.50;10.20;;;2.80;99.90;;;;;;4996240;28;20496;-60
2021/11/23 02:42:00;;;;;;;10.77;8.93;;;2.60;99.90;;;;;;4995850;28;20183;-60
2021/11/23 02:44:26;;;;;;;12.80;10.80;;;2.60;99.90;;;;;;4996181;28;20208;-58
2021/11/23 02:46:52;;;;;;;10.90;9.80;;;2.50;99.90;;;;;;4995031;28;20267;-60
2021/11/23 02:49:21;;;;;;;12.97;9.83;;;2.50;99.90;;;;;;4996143;28;20589;-59
2021/11/23 02:51:46;;;;;;;13.17;11.53;;;2.40;99.90;;;;;;4995945;28;20498;-60
2021/11/23 02:54:12;;;;;;;11.13;10.03;;;2.40;99.90;;;;;;4995573;28;20443;-60
2021/11/23 02:56:37;;;;;;;11.40;10.20;;;2.40;99.90;;;;;;4995725;28;20192;-57
2021/11/23 02:59:04;;;;;;;11.50;10.33;;;2.30;99.90;;;;;;5013269;22;20165;-61
2021/11/23 03:01:30;;;;;;;10.70;9.60;;;2.30;99.90;;;;;;4965748;28;20215;-59
2021/11/23 03:03:56;;;;;;;9.83;8.80;;;2.20;99.90;;;;;;4995124;28;20415;-60
2021/11/23 03:06:23;;;;;;;12.10;10.53;;;2.20;99.90;;;;;;4977998;28;20168;-60
2021/11/23 03:08:52;;;;;;;9.83;8.87;;;2.20;99.90;;;;;;4995991;28;20434;-59
2021/11/23 03:11:21;;;;;;;12.37;10.60;;;2.20;99.90;;;;;;4995317;28;20416;-60
2021/11/23 03:13:46;;;;;;;13.17;11.67;;;2.30;99.90;;;;;;4995505;28;20491;-61
2021/11/23 03:16:12;;;;;;;12.40;11.13;;;2.30;99.90;;;;;;4994824;28;20494;-61
2021/11/23 03:18:38;;;;;;;12.13;10.90;;;2.40;99.90;;;;;;4995208;28;20165;-59
2021/11/23 03:21:04;;;;;;;9.93;8.93;;;2.30;99.90;;;;;;4995177;28;20184;-60
2021/11/23 03:23:29;;;;;;;10.33;9.30;;;2.40;99.90;;;;;;4995360;28;20170;-58
2021/11/23 03:25:55;;;;;;;10.30;9.30;;;2.40;99.90;;;;;;4995352;28;20486;-59
2021/11/23 03:28:21;;;;;;;10.90;9.80;;;2.40;99.90;;;;;;4995350;28;20240;-60
2021/11/23 03:30:46;;;;;;;12.27;11.07;;;2.40;99.90;;;;;;4980246;28;20204;-59
2021/11/23 03:33:12;;;;;;;17.03;11.03;;;2.40;99.90;;;;;;4975319;28;20175;-61
2021/11/23 03:35:41;;;;;;;10.43;9.43;;;2.40;99.90;;;;;;4975591;28;20578;-60
2021/11/23 03:38:09;;;;;;;13.90;12.50;;;2.40;99.90;;;;;;4975588;28;20522;-60
2021/11/23 03:40:37;;;;;;;10.67;8.60;;;2.20;99.90;;;;;;4976090;28;20925;-59
2021/11/23 03:43:04;;;;;;;12.27;10.57;;;2.20;99.90;;;;;;4976109;28;20451;-61
2021/11/23 03:45:30;;;;;;;11.30;10.13;;;2.20;99.90;;;;;;4976192;28;20416;-60
2021/11/23 03:47:56;;;;;;;10.10;9.10;;;2.30;99.90;;;;;;4975488;28;20431;-61
2021/11/23 03:50:23;;;;;;;11.30;10.30;;;2.30;99.90;;;;;;4967467;28;20802;-60
2021/11/23 03:52:49;;;;;;;11.30;10.07;;;2.20;99.90;;;;;;4956539;28;20406;-59
2021/11/23 03:55:19;;;;;;;10.50;9.50;;;2.30;99.90;;;;;;4956264;28;20416;-61
2021/11/23 03:57:47;;;;;;;11.40;10.00;;;2.30;99.90;;;;;;4955500;28;20453;-60
2021/11/23 04:00:15;;;;;;;10.90;9.87;;;2.20;99.90;;;;;;4973679;28;20521;-58
2021/11/23 04:02:41;;;;;;;11.43;9.53;;;2.20;99.90;;;;;;4993327;28;20431;-59
2021/11/23 04:05:08;;;;;;;11.43;10.10;;;2.10;99.90;;;;;;4993275;28;20774;-60
2021/11/23 04:07:34;;;;;;;11.37;10.17;;;2.20;99.90;;;;;;4994648;28;20407;-60
2021/11/23 04:10:00;;;;;;;12.33;11.00;;;2.20;99.90;;;;;;4994726;28;20431;-59
2021/11/23 04:12:26;;;;;;;12.30;10.97;;;2.20;99.90;;;;;;4994501;28;20408;-60
2021/11/23 04:14:52;;;;;;;9.70;8.80;;;2.20;99.90;;;;;;4994020;28;20487;-59
2021/11/23 04:17:18;;;;;;;13.67;11.27;;;2.30;99.90;;;;;;4994257;28;21010;-60
2021/11/23 04:19:43;;;;;;;11.13;10.03;;;2.30;99.90;;;;;;4992937;28;20196;-60
2021/11/23 04:22:09;;;;;;;12.70;11.23;;;2.30;99.90;;;;;;4994193;28;20176;-59
2021/11/23 04:24:35;;;;;;;11.93;10.73;;;2.30;99.90;;;;;;4994688;28;20645;-60
2021/11/23 04:27:01;;;;;;;13.10;11.70;;;2.30;99.90;;;;;;4994784;28;20175;-58
2021/11/23 04:29:27;;;;;;;10.90;9.83;;;2.30;99.90;;;;;;4993960;28;20803;-59
2021/11/23 04:31:53;;;;;;;12.00;10.83;;;2.30;99.90;;;;;;4994369;28;20168;-59
2021/11/23 04:34:19;;;;;;;12.43;10.43;;;2.30;99.90;;;;;;4993205;28;20414;-60
2021/11/23 04:36:45;;;;;;;15.73;12.03;;;2.20;99.90;;;;;;4994145;28;20509;-60
2021/11/23 04:39:11;;;;;;;10.90;9.73;;;2.10;99.90;;;;;;4993846;28;20403;-59
2021/11/23 04:41:38;;;;;;;14.83;12.13;;;2.10;99.90;;;;;;4992599;28;20415;-60
2021/11/23 04:44:04;;;;;;;10.97;9.87;;;2.10;99.90;;;;;;4994134;28;20757;-59
2021/11/23 04:46:30;;;;;;;13.17;11.10;;;2.10;99.90;;;;;;4993805;28;20410;-61
2021/11/23 04:48:55;;;;;;;12.37;10.73;;;2.10;99.90;;;;;;4993799;28;20675;-59
2021/11/23 04:51:22;;;;;;;10.77;9.67;;;2.10;99.90;;;;;;4992729;28;20566;-60
2021/11/23 04:53:48;;;;;;;14.93;11.40;;;2.00;99.90;;;;;;4992599;28;20177;-59
2021/11/23 04:56:14;;;;;;;11.90;10.70;;;1.90;99.90;;;;;;4994056;28;20414;-60
2021/11/23 04:58:40;;;;;;;12.03;10.30;;;2.00;99.90;;;;;;4993900;28;20160;-60
2021/11/23 05:01:05;;;;;;;12.33;11.03;;;2.00;99.90;;;;;;4993189;28;20533;-60
2021/11/23 05:03:31;;;;;;;12.00;10.37;;;2.00;99.90;;;;;;4993772;28;20168;-60
2021/11/23 05:05:57;;;;;;;14.00;12.20;;;2.00;99.90;;;;;;4994437;28;20219;-60
2021/11/23 05:08:22;;;;;;;12.70;11.10;;;1.80;99.90;;;;;;4992663;28;20531;-61
2021/11/23 05:10:48;;;;;;;11.70;10.50;;;1.80;99.90;;;;;;4997957;28;20560;-60
2021/11/23 05:13:13;;;;;;;12.23;11.00;;;1.90;99.90;;;;;;4997778;28;20169;-59
2021/11/23 05:15:39;;;;;;;10.30;9.30;;;1.90;99.90;;;;;;4996271;28;20165;-60
2021/11/23 05:18:05;;;;;;;12.57;11.27;;;1.80;99.90;;;;;;4997775;28;20204;-59
2021/11/23 05:20:30;;;;;;;12.13;10.43;;;1.90;99.90;;;;;;4997593;28;20197;-59
2021/11/23 05:22:56;;;;;;;11.23;10.00;;;1.90;99.90;;;;;;4997240;28;20515;-60
2021/11/23 05:25:22;;;;;;;13.40;12.03;;;1.90;99.90;;;;;;4997482;28;20188;-60
2021/11/23 05:27:47;;;;;;;15.90;11.90;;;1.80;99.90;;;;;;4997384;28;20168;-60
2021/11/23 05:30:13;;;;;;;13.97;12.10;;;1.70;99.90;;;;;;4996923;28;20436;-60
2021/11/23 05:32:41;;;;;;;14.13;12.70;;;1.90;99.90;;;;;;4997262;28;20168;-60
2021/11/23 05:35:08;;;;;;;16.50;13.20;;;1.80;99.90;;;;;;4997172;28;20191;-61
2021/11/23 05:37:33;;;;;;;12.53;11.30;;;1.80;99.90;;;;;;4996988;28;21039;-59
2021/11/23 05:39:59;;;;;;;13.73;10.93;;;1.80;99.90;;;;;;4994696;28;20516;-62
2021/11/23 05:42:25;;;;;;;15.07;13.47;;;1.70;99.90;;;;;;4975500;28;20256;-59
2021/11/23 05:44:51;;;;;;;16.10;12.43;;;1.70;99.90;;;;;;4977411;28;20172;-61
2021/11/23 05:47:16;;;;;;;18.33;14.83;;;1.70;99.90;;;;;;4977546;28;20409;-60
2021/11/23 05:49:43;;;;;;;17.23;13.60;;;1.70;99.90;;;;;;4977681;28;20251;-61
2021/11/23 05:52:09;;;;;;;17.23;13.43;;;1.70;99.90;;;;;;4977726;28;20188;-60
2021/11/23 05:54:35;;;;;;;18.10;15.67;;;1.70;99.90;;;;;;4984621;28;20420;-61
2021/11/23 05:57:01;;;;;;;14.30;12.30;;;1.70;99.90;;;;;;4997102;28;20199;-59
2021/11/23 05:59:27;;;;;;;14.77;13.27;;;1.70;99.90;;;;;;4991849;28;20493;-61
2021/11/23 06:01:52;;;;;;;15.90;14.20;;;1.60;99.90;;;;;;4977281;28;20646;-61
2021/11/23 06:04:18;;;;;;;14.03;12.13;;;1.50;99.90;;;;;;4977651;28;20258;-60
2021/11/23 06:06:44;;;;;;;12.77;11.47;;;1.60;99.90;;;;;;4978385;28;20169;-61
2021/11/23 06:09:10;;;;;;;16.63;13.27;;;1.70;99.90;;;;;;4977261;28;20442;-60
2021/11/23 06:11:35;;;;;;;18.70;13.40;;;1.70;99.90;;;;;;4977119;28;20650;-61
2021/11/23 06:14:01;;;;;;;20.00;15.00;;;1.60;99.90;;;;;;4978059;28;20440;-57
2021/11/23 06:16:29;;;;;;;16.70;14.90;;;1.60;99.90;;;;;;4976553;28;20291;-59
2021/11/23 06:18:54;;;;;;;13.67;11.73;;;1.60;99.90;;;;;;4977214;28;20416;-59
2021/11/23 06:21:20;;;;;;;17.90;14.20;;;1.60;99.90;;;;;;4975434;28;20419;-60
2021/11/23 06:23:47;;;;;;;14.13;12.63;;;1.60;99.90;;;;;;4976832;28;20166;-59
2021/11/23 06:26:12;;;;;;;19.57;15.23;;;1.60;99.90;;;;;;4976859;28;20410;-61
2021/11/23 06:28:38;;;;;;;18.90;14.50;;;1.50;99.90;;;;;;4977432;28;20888;-61
2021/11/23 06:31:04;;;;;;;24.00;15.80;;;1.50;99.90;;;;;;4993308;28;20200;-60
2021/11/23 06:33:29;;;;;;;21.57;16.20;;;1.50;99.90;;;;;;4996621;28;20220;-61
2021/11/23 06:35:55;;;;;;;19.27;14.70;;;1.50;99.90;;;;;;4996369;28;20170;-61
2021/11/23 06:38:21;;;;;;;16.80;14.77;;;1.50;99.90;;;;;;4995666;28;20194;-61
2021/11/23 06:40:47;;;;;;;19.50;16.30;;;1.50;99.90;;;;;;4996218;28;20191;-61
2021/11/23 06:43:12;;;;;;;19.07;16.00;;;1.50;99.90;;;;;;4996417;28;20165;-61
2021/11/23 06:45:40;;;;;;;15.90;13.63;;;1.40;99.90;;;;;;4995968;28;20903;-59
2021/11/23 06:48:08;;;;;;;13.80;12.13;;;1.50;99.90;;;;;;4996273;28;20643;-61
2021/11/23 06:50:34;;;;;;;16.30;13.80;;;1.50;99.90;;;;;;4995606;28;20584;-61
2021/11/23 06:53:01;;;;;;;15.03;13.20;;;1.60;99.90;;;;;;4995596;28;20491;-59
2021/11/23 06:55:27;;;;;;;15.50;12.50;;;1.60;99.90;;;;;;4995486;28;20258;-60
2021/11/23 06:57:53;;;;;;;17.77;12.80;;;1.60;99.90;;;;;;4995480;28;20935;-60
2021/11/23 07:00:19;;;;;;;15.13;13.47;;;1.50;99.90;;;;;;4994853;28;20293;-61
2021/11/23 07:02:44;;;;;;;18.13;14.73;;;1.50;99.90;;;;;;4995625;28;20502;-60
2021/11/23 07:05:10;;;;;;;17.10;15.00;;;1.40;99.90;;;;;;4995944;28;20172;-59
2021/11/23 07:07:35;;;;;;;13.37;11.97;;;1.40;99.90;;;;;;4995164;28;20185;-62
2021/11/23 07:10:04;;;;;;;17.50;13.53;;;1.50;99.90;;;;;;4995249;28;20608;-60
2021/11/23 07:12:29;;;;;;;14.20;12.47;;;1.50;99.90;;;;;;4994298;28;20182;-62
2021/11/23 07:14:55;;;;;;;15.17;13.57;;;1.50;99.90;;;;;;4994947;28;20498;-60
2021/11/23 07:17:20;;;;;;;17.77;14.23;;;1.50;99.90;;;;;;4994985;28;20246;-60
2021/11/23 07:19:46;;;;;;;16.93;15.13;;;1.60;99.90;;;;;;4995511;28;20548;-60
2021/11/23 07:22:12;;;;;;;17.00;14.87;;;1.60;99.90;;;;;;4995632;28;20171;-60
2021/11/23 07:24:37;;;;;;;15.93;14.23;;;1.60;99.90;;;;;;4995254;28;20545;-60
2021/11/23 07:27:03;;;;;;;21.47;17.53;;;1.60;99.90;;;;;;4994744;28;20180;-59
2021/11/23 07:29:29;;;;;;;18.63;15.60;;;1.60;99.90;;;;;;4994736;28;20588;-60
2021/11/23 07:31:54;;;;;;;16.87;14.63;;;1.60;99.90;;;;;;4994055;28;20412;-59
2021/11/23 07:34:20;;;;;;;18.07;15.47;;;1.70;99.90;;;;;;4995091;28;20165;-57
2021/11/23 07:36:46;;;;;;;16.97;14.07;;;1.70;99.90;;;;;;4981575;28;20196;-60
2021/11/23 07:39:11;;;;;;;17.60;15.17;;;1.70;99.90;;;;;;4973971;28;20423;-59
2021/11/23 07:41:37;;;;;;;19.00;16.30;;;1.70;99.90;;;;;;4975435;28;20166;-59
2021/11/23 07:44:05;;;;;;;15.93;13.97;;;1.80;99.90;;;;;;4975592;28;20167;-60
2021/11/23 07:46:31;;;;;;;20.20;16.80;;;1.70;99.90;;;;;;4974527;28;20436;-62
2021/11/23 07:48:57;;;;;;;16.73;13.73;;;1.80;99.90;;;;;;4975297;28;20400;-59
2021/11/23 07:51:23;;;;;;;16.83;14.27;;;1.80;99.90;;;;;;4975813;28;20908;-58
2021/11/23 07:53:49;;;;;;;17.07;15.27;;;1.90;99.90;;;;;;4975129;28;20270;-60
2021/11/23 07:56:14;;;;;;;19.00;15.20;;;1.90;99.90;;;;;;4975175;28;20851;-58
2021/11/23 07:58:40;;;;;;;17.17;14.77;;;1.90;99.90;;;;;;4975140;28;20171;-60
2021/11/23 08:01:06;;;;;;;20.60;17.03;;;1.90;99.90;;;;;;4991403;28;20210;-59
2021/11/23 08:03:32;;;;;;;17.83;14.60;;;2.00;99.90;;;;;;4994468;28;20173;-60
2021/11/23 08:05:57;;;;;;;21.97;18.10;;;2.00;99.90;;;;;;4994886;28;20411;-59
2021/11/23 08:08:23;;;;;;;16.10;14.40;;;2.00;99.90;;;;;;4993782;28;20178;-59
2021/11/23 08:10:49;;;;;;;21.10;15.30;;;2.00;99.90;;;;;;4994232;28;20193;-59
2021/11/23 08:13:16;;;;;;;15.23;13.73;;;1.90;99.90;;;;;;4994332;28;20184;-58
2021/11/23 08:15:42;;;;;;;19.17;16.50;;;2.00;99.90;;;;;;4993769;28;20460;-58
2021/11/23 08:18:09;;;;;;;19.37;15.43;;;2.00;99.90;;;;;;4994287;28;20460;-61
2021/11/23 08:20:35;;;;;;;18.07;15.73;;;2.00;99.90;;;;;;4994111;28;20438;-59
2021/11/23 08:23:02;;;;;;;16.10;13.93;;;2.00;99.90;;;;;;4994288;28;20729;-60
2021/11/23 08:25:28;;;;;;;17.60;15.70;;;2.00;99.90;;;;;;4994165;28;20487;-59
2021/11/23 08:27:54;;;;;;;17.30;15.40;;;2.10;99.90;;;;;;4994250;28;20408;-59
2021/11/23 08:30:21;;;;;;;19.60;17.23;;;2.10;99.90;;;;;;4994258;28;20956;-58
2021/11/23 08:32:47;;;;;;;16.97;13.63;;;2.20;99.90;;;;;;4993591;28;20416;-58
2021/11/23 08:35:13;;;;;;;17.63;15.83;;;2.30;99.90;;;;;;4993461;28;20419;-57
2021/11/23 08:37:39;;;;;;;16.90;14.63;;;2.50;99.90;;;;;;4993821;28;20456;-60
2021/11/23 08:40:06;;;;;;;17.37;14.90;;;2.60;99.90;;;;;;4993775;28;20181;-61
2021/11/23 08:42:32;;;;;;;18.63;16.63;;;2.60;99.90;;;;;;4993682;28;20497;-60
2021/11/23 08:44:58;;;;;;;18.63;16.63;;;2.50;99.90;;;;;;4993639;28;20947;-59
2021/11/23 08:47:25;;;;;;;18.33;16.23;;;2.60;99.90;;;;;;4980855;28;20420;-62
2021/11/23 08:49:51;;;;;;;18.33;15.80;;;2.60;99.90;;;;;;4993763;28;20434;-60
2021/11/23 08:52:17;;;;;;;18.57;16.57;;;2.50;99.90;;;;;;4993455;28;20897;-59
2021/11/23 08:54:43;;;;;;;15.83;14.17;;;2.60;99.90;;;;;;4993332;28;20462;-60
2021/11/23 08:57:09;;;;;;;15.83;14.13;;;2.70;99.90;;;;;;4993617;28;20447;-58
2021/11/23 08:59:43;;;;;;;19.53;15.10;;;2.70;99.90;;;;;;4988818;28;20472;-60
2021/11/23 09:02:12;;;;;;;19.20;16.10;;;2.70;99.90;;;;;;4998375;23;20587;-61
2021/11/23 09:04:38;;;;;;;18.10;16.00;;;2.70;99.90;;;;;;4981559;28;20811;-61
2021/11/23 09:07:07;;;;;;;20.03;15.60;;;2.70;99.90;;;;;;4974353;28;20492;-61
2021/11/23 09:09:35;;;;;;;17.93;16.10;;;2.70;99.90;;;;;;4973620;28;20169;-61
2021/11/23 09:12:03;;;;;;;16.07;14.40;;;2.80;99.90;;;;;;4974138;28;20907;-61
2021/11/23 09:14:33;;;;;;;17.23;15.30;;;2.90;99.90;;;;;;4956625;28;20434;-58
2021/11/23 09:17:00;;;;;;;14.33;12.83;;;3.10;99.90;;;;;;4973742;28;20440;-58
2021/11/23 09:19:26;;;;;;;15.33;13.80;;;3.20;99.90;;;;;;4956222;28;20429;-60
2021/11/23 09:21:54;;;;;;;14.70;13.20;;;3.30;99.90;;;;;;4974056;28;20421;-61
2021/11/23 09:24:21;;;;;;;13.50;11.90;;;3.40;99.90;;;;;;4973511;28;20864;-61
2021/11/23 09:26:47;;;;;;;13.10;11.80;;;3.40;99.90;;;;;;4973803;28;20419;-61
2021/11/23 09:29:14;;;;;;;14.37;12.90;;;3.30;99.90;;;;;;4973998;28;20763;-61
2021/11/23 09:31:41;;;;;;;12.57;11.40;;;3.40;99.90;;;;;;4988902;28;20435;-61
2021/11/23 09:34:07;;;;;;;12.93;11.73;;;3.30;99.90;;;;;;4993216;28;20412;-59
2021/11/23 09:36:32;;;;;;;11.70;10.60;;;3.30;99.90;;;;;;4993031;28;20399;-60
2021/11/23 09:38:59;;;;;;;14.13;12.83;;;3.30;99.90;;;;;;4993107;28;20498;-60
2021/11/23 09:41:25;;;;;;;13.50;12.20;;;3.40;99.90;;;;;;4993083;28;20235;-59
2021/11/23 09:43:50;;;;;;;13.30;12.00;;;3.60;99.90;;;;;;4993329;28;20414;-60
2021/11/23 09:46:17;;;;;;;15.17;12.70;;;3.50;99.90;;;;;;4992912;28;20487;-60
2021/11/23 09:48:44;;;;;;;14.80;11.83;;;3.50;99.90;;;;;;4993046;28;20241;-60
2021/11/23 09:51:14;;;;;;;17.33;12.23;;;3.60;99.90;;;;;;4992681;28;20427;-61
2021/11/23 09:53:41;;;;;;;16.10;13.10;;;3.60;99.90;;;;;;4992586;28;20400;-59
2021/11/23 09:56:06;;;;;;;15.10;12.57;;;3.60;99.90;;;;;;4995684;28;20454;-60
2021/11/23 09:58:32;;;;;;;12.27;10.97;;;3.60;99.90;;;;;;4996871;28;20538;-60
2021/11/23 10:01:05;;;;;;;18.33;12.20;;;3.70;99.90;;;;;;4996015;28;20200;-60
2021/11/23 10:03:33;;;;;;;12.03;10.73;;;4.00;99.90;;;;;;4996753;28;20161;-61
2021/11/23 10:06:10;;;;;;;13.53;12.13;;;4.10;99.90;;;;;;4978729;28;20435;-60
2021/11/23 10:08:39;;;;;;;12.97;11.67;;;4.10;99.90;;;;;;4996422;28;20877;-60
2021/11/23 10:11:05;;;;;;;14.17;12.60;;;4.10;99.90;;;;;;4996677;28;20788;-60
2021/11/23 10:14:01;;;;;;;13.37;11.97;;;4.10;99.90;;;;;;4996701;28;20403;-60
2021/11/23 10:16:39;;;;;;;14.70;11.00;;;4.40;99.90;;;;;;4996104;28;20157;-60
2021/11/23 10:19:09;;;;;;;12.30;11.17;;;4.30;99.90;;;;;;4996471;28;20404;-61
2021/11/23 10:21:45;;;;;;;15.70;11.50;;;4.30;99.90;;;;;;4996280;28;20434;-61
2021/11/23 10:24:12;;;;;;;14.40;11.40;;;4.30;99.90;;;;;;4995988;28;20400;-60
2021/11/23 10:26:38;;;;;;;13.17;11.87;;;4.40;99.90;;;;;;4996319;28;20416;-60
2021/11/23 10:29:06;;;;;;;13.17;11.30;;;4.50;99.90;;;;;;4995986;28;20464;-60
2021/11/23 10:31:37;;;;;;;12.67;11.47;;;4.50;99.90;;;;;;4995924;28;20221;-61
2021/11/23 10:34:07;;;;;;;12.93;11.10;;;4.70;99.90;;;;;;4996537;28;20951;-59
2021/11/23 10:36:35;;;;;;;12.13;10.93;;;4.80;99.90;;;;;;4995736;28;20527;-61
2021/11/23 10:39:17;;;;;;;10.77;9.63;;;4.80;99.90;;;;;;4995891;28;20408;-61
2021/11/23 10:41:49;;;;;;;14.13;12.20;;;4.90;99.90;;;;;;4996140;28;20428;-61
2021/11/23 10:44:29;;;;;;;10.73;8.93;;;5.10;99.90;;;;;;4996671;28;20426;-61
2021/11/23 10:47:00;;;;;;;9.70;8.90;;;5.40;99.90;;;;;;4996186;28;20474;-59
2021/11/23 10:49:28;;;;;;;10.53;9.30;;;6.90;99.90;;;;;;4994897;28;20711;-61
2021/11/23 10:51:54;;;;;;;8.50;7.70;;;9.20;99.90;;;;;;4978156;28;20805;-61
2021/11/23 10:54:20;;;;;;;8.13;7.33;;;11.10;99.90;;;;;;4995772;28;20416;-61
2021/11/23 10:57:04;;;;;;;7.07;6.37;;;12.20;98.10;;;;;;4995567;28;20192;-60
2021/11/23 10:59:30;;;;;;;6.20;5.57;;;13.60;95.60;;;;;;4995411;28;20431;-61
2021/11/23 11:01:57;;;;;;;7.30;6.27;;;13.60;94.20;;;;;;4995019;28;20454;-61
2021/11/23 11:04:24;;;;;;;6.77;6.17;;;14.50;92.60;;;;;;4995806;28;20414;-61
2021/11/23 11:06:51;;;;;;;11.40;6.73;;;13.80;92.10;;;;;;4994584;28;20868;-61
2021/11/23 11:09:20;;;;;;;7.47;6.60;;;14.20;91.50;;;;;;4989169;28;20462;-61
2021/11/23 11:11:46;;;;;;;6.23;5.60;;;15.90;90.40;;;;;;4975782;28;20442;-58
2021/11/23 11:14:13;;;;;;;6.37;5.77;;;17.50;85.80;;;;;;4975793;28;20784;-60
2021/11/23 11:16:40;;;;;;;6.87;6.27;;;18.40;77.80;;;;;;4975507;28;20454;-61
2021/11/23 11:19:11;;;;;;;7.80;7.20;;;15.90;77.80;;;;;;4983999;28;20441;-60
2021/11/23 11:21:47;;;;;;;8.63;7.80;;;13.80;83.50;;;;;;4995068;28;20977;-61
2021/11/23 11:24:44;;;;;;;8.23;7.43;;;14.40;84.60;;;;;;4995003;28;20394;-60
2021/11/23 11:27:37;;;;;;;8.33;7.03;;;14.70;84.20;;;;;;4994733;28;20406;-61
2021/11/23 11:30:27;;;;;;;7.43;6.30;;;15.80;81.90;;;;;;4975726;28;20786;-61
2021/11/23 11:33:07;;;;;;;7.90;7.17;;;16.80;78.70;;;;;;4974988;28;20443;-59
2021/11/23 11:35:43;;;;;;;12.73;7.00;;;15.40;78.00;;;;;;4975565;28;20853;-59
2021/11/23 11:38:29;;;;;;;6.83;6.20;;;15.70;79.00;;;;;;4975081;28;21021;-58
2021/11/23 11:41:02;;;;;;;8.57;7.77;;;15.60;80.30;;;;;;4965164;28;20515;-59
2021/11/23 11:43:34;;;;;;;6.63;5.93;;;16.70;76.90;;;;;;4994584;28;20414;-58
2021/11/23 11:46:01;;;;;;;6.50;5.97;;;16.10;77.30;;;;;;4994445;28;20404;-58
2021/11/23 11:51:09;;;;;;;7.80;7.10;;;13.10;82.90;;;;;;4994957;28;20420;-57
2021/11/23 11:53:43;;;;;;;7.33;6.63;;;13.40;83.50;;;;;;4994680;28;20444;-59
2021/11/23 11:56:10;;;;;;;9.30;7.03;;;15.10;81.40;;;;;;4987680;28;20452;-59
2021/11/23 11:58:57;;;;;;;7.53;6.87;;;14.80;78.40;;;;;;4974734;28;20450;-58
2021/11/23 12:01:27;;;;;;;7.50;5.73;;;14.70;80.50;;;;;;4974470;28;20463;-56
2021/11/23 12:04:00;;;;;;;6.87;6.23;;;16.20;79.80;;;;;;4974374;28;20519;-60
2021/11/23 12:06:54;;;;;;;5.60;5.20;;;17.90;75.60;;;;;;4975169;28;20439;-60
2021/11/23 12:09:44;;;;;;;8.47;4.90;;;18.50;72.10;;;;;;4975063;28;20413;-58
2021/11/23 12:12:09;;;;;;;6.47;5.97;;;16.40;74.20;;;;;;4974228;28;20937;-58
2021/11/23 12:14:53;;;;;;;4.37;3.97;;;15.50;75.00;;;;;;4957049;28;20412;-58
2021/11/23 12:17:50;;;;;;;5.03;4.63;;;16.60;74.10;;;;;;4973955;28;20199;-58
2021/11/23 12:20:25;;;;;;;4.77;4.37;;;15.90;73.90;;;;;;4991991;28;20401;-60
2021/11/23 12:22:52;;;;;;;5.00;4.50;;;16.70;73.00;;;;;;4993849;28;20519;-59
2021/11/23 12:25:21;;;;;;;4.00;3.60;;;15.60;72.90;;;;;;4994100;28;20484;-60
2021/11/23 12:27:48;;;;;;;5.20;4.40;;;15.00;73.50;;;;;;4993628;28;20960;-60
2021/11/23 12:30:19;;;;;;;4.27;3.97;;;12.50;77.60;;;;;;4993608;28;20417;-55
2021/11/23 12:32:46;;;;;;;4.73;4.33;;;10.90;82.90;;;;;;4993360;28;20419;-59
2021/11/23 12:35:15;;;;;;;7.13;5.17;;;9.70;89.50;;;;;;4992578;28;20410;-59
2021/11/23 12:37:44;;;;;;;5.57;5.13;;;9.30;91.50;;;;;;4993573;28;20445;-57
2021/11/23 12:40:19;;;;;;;6.40;5.80;;;8.40;93.30;;;;;;4993610;28;20414;-59
2021/11/23 12:42:54;;;;;;;5.90;5.30;;;8.00;94.70;;;;;;4993765;28;20438;-56
2021/11/23 12:45:41;;;;;;;9.87;6.00;;;7.90;95.30;;;;;;4993691;28;20402;-57
2021/11/23 12:48:10;;;;;;;6.10;5.70;;;7.70;96.40;;;;;;4992715;28;20430;-53